sensor_id;sensor_type;location;lat;lon;timestamp;P1;durP1;ratioP1;P2;durP2;ratioP2
59223;SDS011;45592;52.094;4.330;2022-08-21T00:01:22;10.75;;;3.28;;
59223;SDS011;45592;52.094;4.330;2022-08-21T00:03:50;12.57;;;3.38;;
59223;SDS011;45592;52.094;4.330;2022-08-21T00:06:16;9.82;;;3.50;;
59223;SDS011;45592;52.094;4.330;2022-08-21T00:08:41;11.13;;;3.05;;
59223;SDS011;45592;52.094;4.330;2022-08-21T00:11:07;10.25;;;3.08;;
59223;SDS011;45592;52.094;4.330;2022-08-21T00:13:33;8.10;;;2.90;;
59223;SDS011;45592;52.094;4.330;2022-08-21T00:15:58;12.02;;;3.22;;
59223;SDS011;45592;52.094;4.330;2022-08-21T00:18:24;12.68;;;3.55;;
59223;SDS011;45592;52.094;4.330;2022-08-21T00:20:50;11.73;;;3.30;;
59223;SDS011;45592;52.094;4.330;2022-08-21T00:23:16;11.05;;;3.47;;
59223;SDS011;45592;52.094;4.330;2022-08-21T00:25:42;10.52;;;2.80;;
59223;SDS011;45592;52.094;4.330;2022-08-21T00:28:08;7.57;;;2.88;;
59223;SDS011;45592;52.094;4.330;2022-08-21T00:30:34;11.52;;;2.53;;
59223;SDS011;45592;52.094;4.330;2022-08-21T00:32:59;12.55;;;3.05;;
59223;SDS011;45592;52.094;4.330;2022-08-21T00:35:27;13.25;;;3.20;;
59223;SDS011;45592;52.094;4.330;2022-08-21T00:37:54;10.30;;;2.92;;
59223;SDS011;45592;52.094;4.330;2022-08-21T00:40:23;12.27;;;2.80;;
59223;SDS011;45592;52.094;4.330;2022-08-21T00:43:11;7.50;;;2.22;;
59223;SDS011;45592;52.094;4.330;2022-08-21T00:45:39;10.10;;;2.80;;
59223;SDS011;45592;52.094;4.330;2022-08-21T00:48:05;7.30;;;2.53;;
59223;SDS011;45592;52.094;4.330;2022-08-21T00:50:32;12.00;;;2.45;;
59223;SDS011;45592;52.094;4.330;2022-08-21T00:53:00;11.95;;;2.63;;
59223;SDS011;45592;52.094;4.330;2022-08-21T00:55:27;7.53;;;2.03;;
59223;SDS011;45592;52.094;4.330;2022-08-21T00:57:55;9.65;;;2.80;;
59223;SDS011;45592;52.094;4.330;2022-08-21T01:00:26;8.30;;;2.17;;
59223;SDS011;45592;52.094;4.330;2022-08-21T01:02:54;10.52;;;2.80;;
59223;SDS011;45592;52.094;4.330;2022-08-21T01:05:21;11.45;;;2.60;;
59223;SDS011;45592;52.094;4.330;2022-08-21T01:07:46;8.82;;;2.25;;
59223;SDS011;45592;52.094;4.330;2022-08-21T01:10:12;11.27;;;2.97;;
59223;SDS011;45592;52.094;4.330;2022-08-21T01:12:37;13.02;;;3.10;;
59223;SDS011;45592;52.094;4.330;2022-08-21T01:15:05;13.10;;;3.10;;
59223;SDS011;45592;52.094;4.330;2022-08-21T01:17:33;11.35;;;2.75;;
59223;SDS011;45592;52.094;4.330;2022-08-21T01:20:00;9.80;;;2.67;;
59223;SDS011;45592;52.094;4.330;2022-08-21T01:22:28;10.32;;;2.92;;
59223;SDS011;45592;52.094;4.330;2022-08-21T01:24:54;9.43;;;3.08;;
59223;SDS011;45592;52.094;4.330;2022-08-21T01:27:19;11.35;;;2.95;;
59223;SDS011;45592;52.094;4.330;2022-08-21T01:29:54;10.23;;;3.05;;
59223;SDS011;45592;52.094;4.330;2022-08-21T01:32:26;12.25;;;2.85;;
59223;SDS011;45592;52.094;4.330;2022-08-21T01:34:52;9.52;;;2.85;;
59223;SDS011;45592;52.094;4.330;2022-08-21T01:37:19;12.05;;;3.10;;
59223;SDS011;45592;52.094;4.330;2022-08-21T01:39:46;9.77;;;4.00;;
59223;SDS011;45592;52.094;4.330;2022-08-21T01:42:11;12.20;;;3.50;;
59223;SDS011;45592;52.094;4.330;2022-08-21T01:44:37;11.80;;;3.30;;
59223;SDS011;45592;52.094;4.330;2022-08-21T01:47:04;11.45;;;2.95;;
59223;SDS011;45592;52.094;4.330;2022-08-21T01:49:31;13.93;;;3.42;;
59223;SDS011;45592;52.094;4.330;2022-08-21T01:51:56;9.77;;;2.95;;
59223;SDS011;45592;52.094;4.330;2022-08-21T01:54:22;11.48;;;3.40;;
59223;SDS011;45592;52.094;4.330;2022-08-21T01:56:49;8.95;;;2.78;;
59223;SDS011;45592;52.094;4.330;2022-08-21T01:59:16;12.13;;;2.95;;
59223;SDS011;45592;52.094;4.330;2022-08-21T02:01:41;8.85;;;2.80;;
59223;SDS011;45592;52.094;4.330;2022-08-21T02:04:08;12.20;;;3.28;;
59223;SDS011;45592;52.094;4.330;2022-08-21T02:06:34;12.50;;;3.13;;
59223;SDS011;45592;52.094;4.330;2022-08-21T02:09:01;10.90;;;3.05;;
59223;SDS011;45592;52.094;4.330;2022-08-21T02:11:28;13.68;;;3.33;;
59223;SDS011;45592;52.094;4.330;2022-08-21T02:13:54;15.18;;;3.50;;
59223;SDS011;45592;52.094;4.330;2022-08-21T02:16:19;10.50;;;3.30;;
59223;SDS011;45592;52.094;4.330;2022-08-21T02:18:44;11.13;;;3.13;;
59223;SDS011;45592;52.094;4.330;2022-08-21T02:21:10;11.30;;;3.10;;
59223;SDS011;45592;52.094;4.330;2022-08-21T02:23:36;10.82;;;3.42;;
59223;SDS011;45592;52.094;4.330;2022-08-21T02:26:02;11.05;;;3.28;;
59223;SDS011;45592;52.094;4.330;2022-08-21T02:28:30;9.45;;;2.83;;
59223;SDS011;45592;52.094;4.330;2022-08-21T02:30:55;11.65;;;3.15;;
59223;SDS011;45592;52.094;4.330;2022-08-21T02:33:21;11.10;;;2.90;;
59223;SDS011;45592;52.094;4.330;2022-08-21T02:35:48;8.15;;;2.90;;
59223;SDS011;45592;52.094;4.330;2022-08-21T02:38:16;8.07;;;2.50;;
59223;SDS011;45592;52.094;4.330;2022-08-21T02:40:44;10.95;;;2.67;;
59223;SDS011;45592;52.094;4.330;2022-08-21T02:43:12;18.13;;;3.35;;
59223;SDS011;45592;52.094;4.330;2022-08-21T02:45:39;11.15;;;2.67;;
59223;SDS011;45592;52.094;4.330;2022-08-21T02:48:06;11.40;;;2.78;;
59223;SDS011;45592;52.094;4.330;2022-08-21T02:50:37;8.82;;;2.22;;
59223;SDS011;45592;52.094;4.330;2022-08-21T02:53:23;9.88;;;3.03;;
59223;SDS011;45592;52.094;4.330;2022-08-21T02:55:49;12.15;;;3.00;;
59223;SDS011;45592;52.094;4.330;2022-08-21T02:58:16;9.25;;;2.85;;
59223;SDS011;45592;52.094;4.330;2022-08-21T03:00:44;12.85;;;2.40;;
59223;SDS011;45592;52.094;4.330;2022-08-21T03:03:10;13.65;;;3.00;;
59223;SDS011;45592;52.094;4.330;2022-08-21T03:05:37;10.57;;;2.95;;
59223;SDS011;45592;52.094;4.330;2022-08-21T03:08:03;12.82;;;2.80;;
59223;SDS011;45592;52.094;4.330;2022-08-21T03:10:32;7.95;;;2.80;;
59223;SDS011;45592;52.094;4.330;2022-08-21T03:12:58;12.50;;;3.20;;
59223;SDS011;45592;52.094;4.330;2022-08-21T03:15:24;10.18;;;2.83;;
59223;SDS011;45592;52.094;4.330;2022-08-21T03:17:50;10.13;;;2.75;;
59223;SDS011;45592;52.094;4.330;2022-08-21T03:20:18;14.18;;;3.22;;
59223;SDS011;45592;52.094;4.330;2022-08-21T03:22:47;11.88;;;3.08;;
59223;SDS011;45592;52.094;4.330;2022-08-21T03:25:13;10.77;;;3.08;;
59223;SDS011;45592;52.094;4.330;2022-08-21T03:27:39;13.90;;;3.42;;
59223;SDS011;45592;52.094;4.330;2022-08-21T03:30:06;10.07;;;3.28;;
59223;SDS011;45592;52.094;4.330;2022-08-21T03:32:32;8.57;;;2.90;;
59223;SDS011;45592;52.094;4.330;2022-08-21T03:34:58;10.40;;;3.15;;
59223;SDS011;45592;52.094;4.330;2022-08-21T03:37:25;9.63;;;3.50;;
59223;SDS011;45592;52.094;4.330;2022-08-21T03:39:50;14.43;;;3.50;;
59223;SDS011;45592;52.094;4.330;2022-08-21T03:42:16;9.40;;;3.05;;
59223;SDS011;45592;52.094;4.330;2022-08-21T03:44:41;12.65;;;3.20;;
59223;SDS011;45592;52.094;4.330;2022-08-21T03:47:07;9.70;;;2.90;;
59223;SDS011;45592;52.094;4.330;2022-08-21T03:49:33;12.48;;;3.42;;
59223;SDS011;45592;52.094;4.330;2022-08-21T03:51:59;12.82;;;3.00;;
59223;SDS011;45592;52.094;4.330;2022-08-21T03:54:25;11.82;;;2.88;;
59223;SDS011;45592;52.094;4.330;2022-08-21T03:56:50;12.35;;;3.03;;
59223;SDS011;45592;52.094;4.330;2022-08-21T03:59:16;10.52;;;3.50;;
59223;SDS011;45592;52.094;4.330;2022-08-21T04:01:58;16.63;;;3.40;;
59223;SDS011;45592;52.094;4.330;2022-08-21T04:04:26;12.07;;;3.42;;
59223;SDS011;45592;52.094;4.330;2022-08-21T04:06:53;11.80;;;3.13;;
59223;SDS011;45592;52.094;4.330;2022-08-21T04:09:18;11.88;;;3.42;;
59223;SDS011;45592;52.094;4.330;2022-08-21T04:11:44;13.10;;;3.30;;
59223;SDS011;45592;52.094;4.330;2022-08-21T04:14:11;11.68;;;3.92;;
59223;SDS011;45592;52.094;4.330;2022-08-21T04:16:37;12.30;;;3.88;;
59223;SDS011;45592;52.094;4.330;2022-08-21T04:19:02;10.98;;;3.58;;
59223;SDS011;45592;52.094;4.330;2022-08-21T04:21:28;13.60;;;3.50;;
59223;SDS011;45592;52.094;4.330;2022-08-21T04:23:54;11.20;;;3.50;;
59223;SDS011;45592;52.094;4.330;2022-08-21T04:26:20;12.73;;;3.60;;
59223;SDS011;45592;52.094;4.330;2022-08-21T04:28:46;10.95;;;3.78;;
59223;SDS011;45592;52.094;4.330;2022-08-21T04:31:11;15.65;;;4.32;;
59223;SDS011;45592;52.094;4.330;2022-08-21T04:33:37;11.13;;;3.55;;
59223;SDS011;45592;52.094;4.330;2022-08-21T04:36:03;11.85;;;3.85;;
59223;SDS011;45592;52.094;4.330;2022-08-21T04:38:29;12.82;;;3.92;;
59223;SDS011;45592;52.094;4.330;2022-08-21T04:40:56;17.35;;;4.10;;
59223;SDS011;45592;52.094;4.330;2022-08-21T04:43:22;15.88;;;4.05;;
59223;SDS011;45592;52.094;4.330;2022-08-21T04:45:48;12.70;;;4.07;;
59223;SDS011;45592;52.094;4.330;2022-08-21T04:48:15;16.50;;;3.88;;
59223;SDS011;45592;52.094;4.330;2022-08-21T04:53:30;10.57;;;4.28;;
59223;SDS011;45592;52.094;4.330;2022-08-21T04:56:06;15.93;;;4.03;;
59223;SDS011;45592;52.094;4.330;2022-08-21T04:58:35;18.38;;;4.50;;
59223;SDS011;45592;52.094;4.330;2022-08-21T05:01:06;15.95;;;4.28;;
59223;SDS011;45592;52.094;4.330;2022-08-21T05:03:34;15.18;;;4.68;;
59223;SDS011;45592;52.094;4.330;2022-08-21T05:06:03;17.30;;;5.18;;
59223;SDS011;45592;52.094;4.330;2022-08-21T05:08:31;10.85;;;4.35;;
59223;SDS011;45592;52.094;4.330;2022-08-21T05:10:56;15.23;;;4.75;;
59223;SDS011;45592;52.094;4.330;2022-08-21T05:13:23;15.07;;;5.10;;
59223;SDS011;45592;52.094;4.330;2022-08-21T05:15:48;16.90;;;4.97;;
59223;SDS011;45592;52.094;4.330;2022-08-21T05:18:13;16.50;;;4.85;;
59223;SDS011;45592;52.094;4.330;2022-08-21T05:20:39;17.02;;;4.80;;
59223;SDS011;45592;52.094;4.330;2022-08-21T05:23:08;15.18;;;5.28;;
59223;SDS011;45592;52.094;4.330;2022-08-21T05:25:34;14.82;;;5.35;;
59223;SDS011;45592;52.094;4.330;2022-08-21T05:28:00;16.30;;;5.32;;
59223;SDS011;45592;52.094;4.330;2022-08-21T05:30:25;13.98;;;5.13;;
59223;SDS011;45592;52.094;4.330;2022-08-21T05:32:55;15.93;;;5.50;;
59223;SDS011;45592;52.094;4.330;2022-08-21T05:35:22;19.80;;;6.22;;
59223;SDS011;45592;52.094;4.330;2022-08-21T05:37:47;18.90;;;6.00;;
59223;SDS011;45592;52.094;4.330;2022-08-21T05:40:12;16.23;;;4.90;;
59223;SDS011;45592;52.094;4.330;2022-08-21T05:42:39;16.15;;;5.15;;
59223;SDS011;45592;52.094;4.330;2022-08-21T05:45:04;14.93;;;5.35;;
59223;SDS011;45592;52.094;4.330;2022-08-21T05:47:30;15.35;;;4.93;;
59223;SDS011;45592;52.094;4.330;2022-08-21T05:49:56;19.17;;;5.43;;
59223;SDS011;45592;52.094;4.330;2022-08-21T05:52:21;21.23;;;5.57;;
59223;SDS011;45592;52.094;4.330;2022-08-21T05:54:47;15.32;;;5.43;;
59223;SDS011;45592;52.094;4.330;2022-08-21T05:57:12;14.77;;;5.60;;
59223;SDS011;45592;52.094;4.330;2022-08-21T05:59:38;18.20;;;5.55;;
59223;SDS011;45592;52.094;4.330;2022-08-21T06:02:03;15.18;;;5.90;;
59223;SDS011;45592;52.094;4.330;2022-08-21T06:04:29;20.42;;;5.95;;
59223;SDS011;45592;52.094;4.330;2022-08-21T06:06:54;16.80;;;6.03;;
59223;SDS011;45592;52.094;4.330;2022-08-21T06:09:20;15.02;;;5.72;;
59223;SDS011;45592;52.094;4.330;2022-08-21T06:11:45;18.40;;;5.63;;
59223;SDS011;45592;52.094;4.330;2022-08-21T06:14:13;19.60;;;5.63;;
59223;SDS011;45592;52.094;4.330;2022-08-21T06:16:39;20.60;;;5.90;;
59223;SDS011;45592;52.094;4.330;2022-08-21T06:19:05;16.45;;;4.90;;
59223;SDS011;45592;52.094;4.330;2022-08-21T06:21:31;18.38;;;5.65;;
59223;SDS011;45592;52.094;4.330;2022-08-21T06:23:56;17.35;;;5.28;;
59223;SDS011;45592;52.094;4.330;2022-08-21T06:26:22;18.15;;;5.88;;
59223;SDS011;45592;52.094;4.330;2022-08-21T06:28:48;15.75;;;5.25;;
59223;SDS011;45592;52.094;4.330;2022-08-21T06:31:15;15.63;;;6.47;;
59223;SDS011;45592;52.094;4.330;2022-08-21T06:33:45;20.58;;;6.10;;
59223;SDS011;45592;52.094;4.330;2022-08-21T06:36:11;16.13;;;5.68;;
59223;SDS011;45592;52.094;4.330;2022-08-21T06:38:37;13.15;;;5.50;;
59223;SDS011;45592;52.094;4.330;2022-08-21T06:41:03;19.45;;;5.80;;
59223;SDS011;45592;52.094;4.330;2022-08-21T06:43:29;15.60;;;5.50;;
59223;SDS011;45592;52.094;4.330;2022-08-21T06:45:55;16.95;;;5.40;;
59223;SDS011;45592;52.094;4.330;2022-08-21T06:48:21;15.43;;;5.90;;
59223;SDS011;45592;52.094;4.330;2022-08-21T06:50:47;17.88;;;5.45;;
59223;SDS011;45592;52.094;4.330;2022-08-21T06:53:13;15.95;;;4.85;;
59223;SDS011;45592;52.094;4.330;2022-08-21T06:55:40;17.42;;;5.15;;
59223;SDS011;45592;52.094;4.330;2022-08-21T06:58:07;23.10;;;5.82;;
59223;SDS011;45592;52.094;4.330;2022-08-21T07:00:34;15.15;;;5.10;;
59223;SDS011;45592;52.094;4.330;2022-08-21T07:03:02;15.30;;;5.10;;
59223;SDS011;45592;52.094;4.330;2022-08-21T07:05:28;16.92;;;5.22;;
59223;SDS011;45592;52.094;4.330;2022-08-21T07:07:56;13.18;;;4.80;;
59223;SDS011;45592;52.094;4.330;2022-08-21T07:10:22;17.55;;;5.38;;
59223;SDS011;45592;52.094;4.330;2022-08-21T07:12:49;18.02;;;4.95;;
59223;SDS011;45592;52.094;4.330;2022-08-21T07:15:15;14.50;;;4.43;;
59223;SDS011;45592;52.094;4.330;2022-08-21T07:17:41;13.70;;;4.72;;
59223;SDS011;45592;52.094;4.330;2022-08-21T07:20:06;15.98;;;4.90;;
59223;SDS011;45592;52.094;4.330;2022-08-21T07:22:32;19.45;;;5.40;;
59223;SDS011;45592;52.094;4.330;2022-08-21T07:25:00;14.30;;;4.47;;
59223;SDS011;45592;52.094;4.330;2022-08-21T07:27:25;15.95;;;4.85;;
59223;SDS011;45592;52.094;4.330;2022-08-21T07:29:51;17.70;;;4.65;;
59223;SDS011;45592;52.094;4.330;2022-08-21T07:32:16;13.27;;;4.18;;
59223;SDS011;45592;52.094;4.330;2022-08-21T07:34:42;17.17;;;5.00;;
59223;SDS011;45592;52.094;4.330;2022-08-21T07:37:08;13.52;;;4.18;;
59223;SDS011;45592;52.094;4.330;2022-08-21T07:39:33;22.02;;;5.07;;
59223;SDS011;45592;52.094;4.330;2022-08-21T07:41:58;12.43;;;4.25;;
59223;SDS011;45592;52.094;4.330;2022-08-21T07:44:23;14.57;;;4.47;;
59223;SDS011;45592;52.094;4.330;2022-08-21T07:46:49;14.20;;;4.38;;
59223;SDS011;45592;52.094;4.330;2022-08-21T07:49:14;15.23;;;4.35;;
59223;SDS011;45592;52.094;4.330;2022-08-21T07:51:40;12.73;;;3.78;;
59223;SDS011;45592;52.094;4.330;2022-08-21T07:54:05;19.05;;;3.95;;
59223;SDS011;45592;52.094;4.330;2022-08-21T07:56:31;14.60;;;3.60;;
59223;SDS011;45592;52.094;4.330;2022-08-21T07:58:57;15.45;;;3.55;;
59223;SDS011;45592;52.094;4.330;2022-08-21T08:01:23;13.88;;;3.88;;
59223;SDS011;45592;52.094;4.330;2022-08-21T08:03:49;17.92;;;4.43;;
59223;SDS011;45592;52.094;4.330;2022-08-21T08:06:14;17.83;;;4.57;;
59223;SDS011;45592;52.094;4.330;2022-08-21T08:08:41;14.23;;;4.13;;
59223;SDS011;45592;52.094;4.330;2022-08-21T08:11:08;15.20;;;3.80;;
59223;SDS011;45592;52.094;4.330;2022-08-21T08:13:41;12.13;;;3.08;;
59223;SDS011;45592;52.094;4.330;2022-08-21T08:16:08;11.10;;;3.10;;
59223;SDS011;45592;52.094;4.330;2022-08-21T08:18:34;11.88;;;3.30;;
59223;SDS011;45592;52.094;4.330;2022-08-21T08:20:59;11.40;;;2.58;;
59223;SDS011;45592;52.094;4.330;2022-08-21T08:23:25;10.43;;;2.30;;
59223;SDS011;45592;52.094;4.330;2022-08-21T08:25:51;9.30;;;2.20;;
59223;SDS011;45592;52.094;4.330;2022-08-21T08:28:16;13.25;;;2.38;;
59223;SDS011;45592;52.094;4.330;2022-08-21T08:30:42;9.40;;;2.30;;
59223;SDS011;45592;52.094;4.330;2022-08-21T08:33:07;8.88;;;2.30;;
59223;SDS011;45592;52.094;4.330;2022-08-21T08:35:33;8.50;;;1.90;;
59223;SDS011;45592;52.094;4.330;2022-08-21T08:37:58;10.57;;;1.98;;
59223;SDS011;45592;52.094;4.330;2022-08-21T08:40:32;7.13;;;1.67;;
59223;SDS011;45592;52.094;4.330;2022-08-21T08:43:04;6.45;;;1.52;;
59223;SDS011;45592;52.094;4.330;2022-08-21T08:45:31;5.90;;;1.42;;
59223;SDS011;45592;52.094;4.330;2022-08-21T08:48:03;10.23;;;2.15;;
59223;SDS011;45592;52.094;4.330;2022-08-21T08:50:41;8.00;;;1.80;;
59223;SDS011;45592;52.094;4.330;2022-08-21T08:53:14;11.25;;;2.60;;
59223;SDS011;45592;52.094;4.330;2022-08-21T08:55:45;6.22;;;1.60;;
59223;SDS011;45592;52.094;4.330;2022-08-21T08:58:16;8.75;;;1.60;;
59223;SDS011;45592;52.094;4.330;2022-08-21T09:00:47;8.93;;;1.55;;
59223;SDS011;45592;52.094;4.330;2022-08-21T09:03:15;7.40;;;1.50;;
59223;SDS011;45592;52.094;4.330;2022-08-21T09:05:45;7.00;;;1.55;;
59223;SDS011;45592;52.094;4.330;2022-08-21T09:16:31;7.95;;;1.52;;
59223;SDS011;45592;52.094;4.330;2022-08-21T09:22:19;7.97;;;1.92;;
59223;SDS011;45592;52.094;4.330;2022-08-21T09:25:16;8.15;;;1.88;;
59223;SDS011;45592;52.094;4.330;2022-08-21T09:27:47;7.38;;;2.03;;
59223;SDS011;45592;52.094;4.330;2022-08-21T09:30:13;9.05;;;1.90;;
59223;SDS011;45592;52.094;4.330;2022-08-21T09:32:39;7.70;;;1.80;;
59223;SDS011;45592;52.094;4.330;2022-08-21T09:35:10;9.68;;;1.63;;
59223;SDS011;45592;52.094;4.330;2022-08-21T09:37:49;7.32;;;1.52;;
59223;SDS011;45592;52.094;4.330;2022-08-21T09:40:15;5.65;;;1.45;;
59223;SDS011;45592;52.094;4.330;2022-08-21T09:42:54;6.72;;;1.77;;
59223;SDS011;45592;52.094;4.330;2022-08-21T09:45:21;6.93;;;1.90;;
59223;SDS011;45592;52.094;4.330;2022-08-21T09:47:46;6.15;;;1.52;;
59223;SDS011;45592;52.094;4.330;2022-08-21T09:50:22;7.35;;;1.70;;
59223;SDS011;45592;52.094;4.330;2022-08-21T09:52:55;10.38;;;1.60;;
59223;SDS011;45592;52.094;4.330;2022-08-21T09:58:41;5.43;;;1.65;;
59223;SDS011;45592;52.094;4.330;2022-08-21T10:01:14;5.35;;;1.52;;
59223;SDS011;45592;52.094;4.330;2022-08-21T10:04:03;9.60;;;1.85;;
59223;SDS011;45592;52.094;4.330;2022-08-21T10:06:30;6.25;;;1.63;;
59223;SDS011;45592;52.094;4.330;2022-08-21T10:09:09;8.80;;;2.47;;
59223;SDS011;45592;52.094;4.330;2022-08-21T10:11:36;8.10;;;2.22;;
59223;SDS011;45592;52.094;4.330;2022-08-21T10:22:00;7.40;;;1.75;;
59223;SDS011;45592;52.094;4.330;2022-08-21T10:24:36;8.18;;;1.50;;
59223;SDS011;45592;52.094;4.330;2022-08-21T10:30:08;9.20;;;1.80;;
59223;SDS011;45592;52.094;4.330;2022-08-21T10:32:40;10.35;;;2.42;;
59223;SDS011;45592;52.094;4.330;2022-08-21T10:35:26;7.25;;;1.80;;
59223;SDS011;45592;52.094;4.330;2022-08-21T10:47:00;9.27;;;2.42;;
59223;SDS011;45592;52.094;4.330;2022-08-21T10:49:45;8.38;;;2.00;;
59223;SDS011;45592;52.094;4.330;2022-08-21T10:55:04;9.25;;;2.30;;
59223;SDS011;45592;52.094;4.330;2022-08-21T10:57:43;8.77;;;2.58;;
59223;SDS011;45592;52.094;4.330;2022-08-21T11:00:21;8.05;;;2.10;;
59223;SDS011;45592;52.094;4.330;2022-08-21T11:05:33;9.07;;;2.30;;
59223;SDS011;45592;52.094;4.330;2022-08-21T11:08:14;9.30;;;2.10;;
59223;SDS011;45592;52.094;4.330;2022-08-21T11:10:48;11.23;;;2.17;;
59223;SDS011;45592;52.094;4.330;2022-08-21T11:13:24;9.10;;;2.10;;
59223;SDS011;45592;52.094;4.330;2022-08-21T11:16:01;11.40;;;2.20;;
59223;SDS011;45592;52.094;4.330;2022-08-21T11:18:34;8.77;;;2.10;;
59223;SDS011;45592;52.094;4.330;2022-08-21T11:27:03;13.73;;;2.10;;
59223;SDS011;45592;52.094;4.330;2022-08-21T11:29:17;9.32;;;2.05;;
59223;SDS011;45592;52.094;4.330;2022-08-21T11:35:04;7.78;;;2.00;;
59223;SDS011;45592;52.094;4.330;2022-08-21T11:43:42;9.48;;;1.85;;
59223;SDS011;45592;52.094;4.330;2022-08-21T11:46:19;8.43;;;1.75;;
59223;SDS011;45592;52.094;4.330;2022-08-21T11:51:58;8.70;;;1.90;;
59223;SDS011;45592;52.094;4.330;2022-08-21T11:54:49;9.45;;;1.83;;
59223;SDS011;45592;52.094;4.330;2022-08-21T12:03:09;11.45;;;1.83;;
59223;SDS011;45592;52.094;4.330;2022-08-21T12:05:42;7.72;;;1.80;;
59223;SDS011;45592;52.094;4.330;2022-08-21T12:08:28;7.18;;;1.77;;
59223;SDS011;45592;52.094;4.330;2022-08-21T12:11:01;6.03;;;1.60;;
59223;SDS011;45592;52.094;4.330;2022-08-21T12:13:31;8.07;;;1.77;;
59223;SDS011;45592;52.094;4.330;2022-08-21T12:16:15;9.48;;;1.83;;
59223;SDS011;45592;52.094;4.330;2022-08-21T12:19:04;7.07;;;1.55;;
59223;SDS011;45592;52.094;4.330;2022-08-21T12:21:31;8.40;;;1.65;;
59223;SDS011;45592;52.094;4.330;2022-08-21T12:26:54;10.07;;;2.28;;
59223;SDS011;45592;52.094;4.330;2022-08-21T12:34:45;5.00;;;1.48;;
59223;SDS011;45592;52.094;4.330;2022-08-21T12:39:38;8.70;;;1.70;;
59223;SDS011;45592;52.094;4.330;2022-08-21T12:42:16;7.88;;;1.88;;
59223;SDS011;45592;52.094;4.330;2022-08-21T12:47:16;9.65;;;2.00;;
59223;SDS011;45592;52.094;4.330;2022-08-21T12:53:02;6.65;;;1.80;;
59223;SDS011;45592;52.094;4.330;2022-08-21T12:55:33;6.32;;;1.77;;
59223;SDS011;45592;52.094;4.330;2022-08-21T12:57:59;7.10;;;1.58;;
59223;SDS011;45592;52.094;4.330;2022-08-21T13:00:26;9.90;;;1.80;;
59223;SDS011;45592;52.094;4.330;2022-08-21T13:02:55;8.43;;;2.00;;
59223;SDS011;45592;52.094;4.330;2022-08-21T13:05:30;6.28;;;1.63;;
59223;SDS011;45592;52.094;4.330;2022-08-21T13:08:03;9.57;;;2.10;;
59223;SDS011;45592;52.094;4.330;2022-08-21T13:10:31;6.75;;;1.85;;
59223;SDS011;45592;52.094;4.330;2022-08-21T13:12:59;8.68;;;1.70;;
59223;SDS011;45592;52.094;4.330;2022-08-21T13:15:32;8.43;;;2.20;;
59223;SDS011;45592;52.094;4.330;2022-08-21T13:18:00;9.57;;;1.90;;
59223;SDS011;45592;52.094;4.330;2022-08-21T13:20:29;7.80;;;1.85;;
59223;SDS011;45592;52.094;4.330;2022-08-21T13:22:57;10.02;;;1.83;;
59223;SDS011;45592;52.094;4.330;2022-08-21T13:25:25;6.72;;;1.80;;
59223;SDS011;45592;52.094;4.330;2022-08-21T13:28:00;6.82;;;1.95;;
59223;SDS011;45592;52.094;4.330;2022-08-21T13:30:26;8.98;;;2.00;;
59223;SDS011;45592;52.094;4.330;2022-08-21T13:32:55;7.28;;;2.40;;
59223;SDS011;45592;52.094;4.330;2022-08-21T13:35:28;9.95;;;2.30;;
59223;SDS011;45592;52.094;4.330;2022-08-21T13:37:56;7.68;;;1.85;;
59223;SDS011;45592;52.094;4.330;2022-08-21T13:40:39;11.63;;;2.20;;
59223;SDS011;45592;52.094;4.330;2022-08-21T13:43:28;7.15;;;1.88;;
59223;SDS011;45592;52.094;4.330;2022-08-21T13:45:57;7.07;;;2.17;;
59223;SDS011;45592;52.094;4.330;2022-08-21T13:48:24;8.35;;;2.38;;
59223;SDS011;45592;52.094;4.330;2022-08-21T13:50:52;6.60;;;2.00;;
59223;SDS011;45592;52.094;4.330;2022-08-21T13:54:02;11.00;;;2.78;;
59223;SDS011;45592;52.094;4.330;2022-08-21T13:56:09;11.55;;;2.47;;
59223;SDS011;45592;52.094;4.330;2022-08-21T13:58:46;8.63;;;2.50;;
59223;SDS011;45592;52.094;4.330;2022-08-21T14:01:19;12.68;;;2.85;;
59223;SDS011;45592;52.094;4.330;2022-08-21T14:03:50;10.57;;;2.50;;
59223;SDS011;45592;52.094;4.330;2022-08-21T14:06:21;8.77;;;2.30;;
59223;SDS011;45592;52.094;4.330;2022-08-21T14:08:56;11.50;;;2.38;;
59223;SDS011;45592;52.094;4.330;2022-08-21T14:11:27;11.68;;;2.38;;
59223;SDS011;45592;52.094;4.330;2022-08-21T14:13:58;11.40;;;2.60;;
59223;SDS011;45592;52.094;4.330;2022-08-21T14:16:39;14.00;;;2.70;;
59223;SDS011;45592;52.094;4.330;2022-08-21T14:21:46;10.38;;;2.28;;
59223;SDS011;45592;52.094;4.330;2022-08-21T14:24:13;8.15;;;2.53;;
59223;SDS011;45592;52.094;4.330;2022-08-21T14:26:50;10.63;;;2.55;;
59223;SDS011;45592;52.094;4.330;2022-08-21T14:29:18;10.43;;;2.50;;
59223;SDS011;45592;52.094;4.330;2022-08-21T14:31:54;11.13;;;2.67;;
59223;SDS011;45592;52.094;4.330;2022-08-21T14:34:21;9.00;;;2.13;;
59223;SDS011;45592;52.094;4.330;2022-08-21T14:36:49;14.45;;;3.05;;
59223;SDS011;45592;52.094;4.330;2022-08-21T14:39:15;11.15;;;2.20;;
59223;SDS011;45592;52.094;4.330;2022-08-21T14:41:41;12.02;;;2.55;;
59223;SDS011;45592;52.094;4.330;2022-08-21T14:44:07;6.97;;;2.13;;
59223;SDS011;45592;52.094;4.330;2022-08-21T14:46:34;8.65;;;2.45;;
59223;SDS011;45592;52.094;4.330;2022-08-21T14:49:01;7.65;;;2.03;;
59223;SDS011;45592;52.094;4.330;2022-08-21T14:51:27;13.20;;;2.80;;
59223;SDS011;45592;52.094;4.330;2022-08-21T14:53:53;9.25;;;2.53;;
59223;SDS011;45592;52.094;4.330;2022-08-21T14:56:18;9.30;;;2.45;;
59223;SDS011;45592;52.094;4.330;2022-08-21T14:58:45;11.40;;;2.50;;
59223;SDS011;45592;52.094;4.330;2022-08-21T15:01:13;10.73;;;2.60;;
59223;SDS011;45592;52.094;4.330;2022-08-21T15:03:40;13.23;;;3.00;;
59223;SDS011;45592;52.094;4.330;2022-08-21T15:06:06;10.38;;;2.38;;
59223;SDS011;45592;52.094;4.330;2022-08-21T15:08:32;8.13;;;2.63;;
59223;SDS011;45592;52.094;4.330;2022-08-21T15:10:58;8.88;;;2.30;;
59223;SDS011;45592;52.094;4.330;2022-08-21T15:13:26;7.90;;;2.30;;
59223;SDS011;45592;52.094;4.330;2022-08-21T15:15:52;11.07;;;2.80;;
59223;SDS011;45592;52.094;4.330;2022-08-21T15:18:19;12.10;;;2.72;;
59223;SDS011;45592;52.094;4.330;2022-08-21T15:20:46;10.23;;;2.92;;
59223;SDS011;45592;52.094;4.330;2022-08-21T15:23:11;9.75;;;2.47;;
59223;SDS011;45592;52.094;4.330;2022-08-21T15:25:39;8.45;;;2.63;;
59223;SDS011;45592;52.094;4.330;2022-08-21T15:28:07;11.27;;;2.45;;
59223;SDS011;45592;52.094;4.330;2022-08-21T15:30:33;9.60;;;2.95;;
59223;SDS011;45592;52.094;4.330;2022-08-21T15:32:59;12.10;;;2.70;;
59223;SDS011;45592;52.094;4.330;2022-08-21T15:35:24;11.93;;;2.80;;
59223;SDS011;45592;52.094;4.330;2022-08-21T15:37:50;10.68;;;2.88;;
59223;SDS011;45592;52.094;4.330;2022-08-21T15:40:16;14.10;;;3.30;;
59223;SDS011;45592;52.094;4.330;2022-08-21T15:42:42;8.27;;;2.50;;
59223;SDS011;45592;52.094;4.330;2022-08-21T15:45:08;12.95;;;3.28;;
59223;SDS011;45592;52.094;4.330;2022-08-21T15:47:36;10.18;;;2.60;;
59223;SDS011;45592;52.094;4.330;2022-08-21T15:50:03;8.75;;;2.38;;
59223;SDS011;45592;52.094;4.330;2022-08-21T15:52:31;9.65;;;2.63;;
59223;SDS011;45592;52.094;4.330;2022-08-21T15:54:57;11.50;;;2.72;;
59223;SDS011;45592;52.094;4.330;2022-08-21T15:57:23;11.10;;;3.00;;
59223;SDS011;45592;52.094;4.330;2022-08-21T16:00:00;10.70;;;2.67;;
59223;SDS011;45592;52.094;4.330;2022-08-21T16:02:35;8.68;;;2.33;;
59223;SDS011;45592;52.094;4.330;2022-08-21T16:05:01;6.70;;;2.00;;
59223;SDS011;45592;52.094;4.330;2022-08-21T16:07:27;10.93;;;2.67;;
59223;SDS011;45592;52.094;4.330;2022-08-21T16:09:52;8.35;;;2.35;;
59223;SDS011;45592;52.094;4.330;2022-08-21T16:12:21;9.57;;;2.58;;